sensor_id;sensor_type;location;lat;lon;timestamp;temperature;humidity
17948;DHT22;9099;47.958;11.366;2022-10-22T00:01:03;15.50;99.90
17948;DHT22;9099;47.958;11.366;2022-10-22T00:03:30;15.50;99.90
17948;DHT22;9099;47.958;11.366;2022-10-22T00:05:58;15.50;99.90
17948;DHT22;9099;47.958;11.366;2022-10-22T00:08:24;15.40;99.90
17948;DHT22;9099;47.958;11.366;2022-10-22T00:10:53;15.40;99.90
17948;DHT22;9099;47.958;11.366;2022-10-22T00:13:20;15.30;99.90
17948;DHT22;9099;47.958;11.366;2022-10-22T00:15:47;15.30;99.90
17948;DHT22;9099;47.958;11.366;2022-10-22T00:18:14;15.30;99.90
17948;DHT22;9099;47.958;11.366;2022-10-22T00:20:41;15.40;99.90
17948;DHT22;9099;47.958;11.366;2022-10-22T00:23:09;15.40;99.90
17948;DHT22;9099;47.958;11.366;2022-10-22T00:25:35;15.40;99.90
17948;DHT22;9099;47.958;11.366;2022-10-22T00:28:04;15.40;99.90
17948;DHT22;9099;47.958;11.366;2022-10-22T00:30:31;15.30;99.90
17948;DHT22;9099;47.958;11.366;2022-10-22T00:32:58;15.30;99.90
17948;DHT22;9099;47.958;11.366;2022-10-22T00:35:25;15.30;99.90
17948;DHT22;9099;47.958;11.366;2022-10-22T00:37:52;15.30;99.90
17948;DHT22;9099;47.958;11.366;2022-10-22T00:40:19;15.30;99.90
17948;DHT22;9099;47.958;11.366;2022-10-22T00:42:46;15.20;99.90
17948;DHT22;9099;47.958;11.366;2022-10-22T00:45:18;15.20;99.90
17948;DHT22;9099;47.958;11.366;2022-10-22T00:47:49;15.20;99.90
17948;DHT22;9099;47.958;11.366;2022-10-22T00:50:20;15.10;99.90
17948;DHT22;9099;47.958;11.366;2022-10-22T00:52:48;15.10;99.90
17948;DHT22;9099;47.958;11.366;2022-10-22T00:55:17;15.20;99.90
17948;DHT22;9099;47.958;11.366;2022-10-22T00:57:44;15.10;99.90
17948;DHT22;9099;47.958;11.366;2022-10-22T01:00:13;15.10;99.90
17948;DHT22;9099;47.958;11.366;2022-10-22T01:02:41;15.20;99.90
17948;DHT22;9099;47.958;11.366;2022-10-22T01:05:08;15.10;99.90
17948;DHT22;9099;47.958;11.366;2022-10-22T01:07:39;15.10;99.90
17948;DHT22;9099;47.958;11.366;2022-10-22T01:10:13;15.10;99.90
17948;DHT22;9099;47.958;11.366;2022-10-22T01:12:46;15.20;99.90
17948;DHT22;9099;47.958;11.366;2022-10-22T01:15:23;15.20;99.90
17948;DHT22;9099;47.958;11.366;2022-10-22T01:17:56;15.20;99.90
17948;DHT22;9099;47.958;11.366;2022-10-22T01:20:59;15.20;99.90
17948;DHT22;9099;47.958;11.366;2022-10-22T01:23:43;15.20;99.90
17948;DHT22;9099;47.958;11.366;2022-10-22T01:26:16;15.20;99.90
17948;DHT22;9099;47.958;11.366;2022-10-22T01:28:56;15.10;99.90
17948;DHT22;9099;47.958;11.366;2022-10-22T01:31:28;15.00;99.90
17948;DHT22;9099;47.958;11.366;2022-10-22T01:33:58;15.00;99.90
17948;DHT22;9099;47.958;11.366;2022-10-22T01:36:27;15.00;99.90
17948;DHT22;9099;47.958;11.366;2022-10-22T01:38:55;15.00;99.90
17948;DHT22;9099;47.958;11.366;2022-10-22T01:41:22;15.00;99.90
17948;DHT22;9099;47.958;11.366;2022-10-22T01:43:51;15.00;99.90
17948;DHT22;9099;47.958;11.366;2022-10-22T01:46:18;14.90;99.90
17948;DHT22;9099;47.958;11.366;2022-10-22T01:49:02;14.90;99.90
17948;DHT22;9099;47.958;11.366;2022-10-22T01:51:49;14.90;99.90
17948;DHT22;9099;47.958;11.366;2022-10-22T01:54:26;14.90;99.90
17948;DHT22;9099;47.958;11.366;2022-10-22T01:57:05;14.90;99.90
17948;DHT22;9099;47.958;11.366;2022-10-22T01:59:42;14.80;99.90
17948;DHT22;9099;47.958;11.366;2022-10-22T02:02:22;14.70;99.90
17948;DHT22;9099;47.958;11.366;2022-10-22T02:04:56;14.80;99.90
17948;DHT22;9099;47.958;11.366;2022-10-22T02:07:27;14.70;99.90
17948;DHT22;9099;47.958;11.366;2022-10-22T02:09:56;14.80;99.90
17948;DHT22;9099;47.958;11.366;2022-10-22T02:12:26;14.80;99.90
17948;DHT22;9099;47.958;11.366;2022-10-22T02:14:55;14.80;99.90
17948;DHT22;9099;47.958;11.366;2022-10-22T02:17:24;14.80;99.90
17948;DHT22;9099;47.958;11.366;2022-10-22T02:19:55;14.80;99.90
17948;DHT22;9099;47.958;11.366;2022-10-22T02:22:23;14.70;99.90
17948;DHT22;9099;47.958;11.366;2022-10-22T02:24:50;14.70;99.90
17948;DHT22;9099;47.958;11.366;2022-10-22T02:27:20;14.70;99.90
17948;DHT22;9099;47.958;11.366;2022-10-22T02:29:53;14.70;99.90
17948;DHT22;9099;47.958;11.366;2022-10-22T02:32:27;14.70;99.90
17948;DHT22;9099;47.958;11.366;2022-10-22T02:34:56;14.70;99.90
17948;DHT22;9099;47.958;11.366;2022-10-22T02:37:25;14.60;99.90
17948;DHT22;9099;47.958;11.366;2022-10-22T02:39:53;14.60;99.90
17948;DHT22;9099;47.958;11.366;2022-10-22T02:42:21;14.50;99.90
17948;DHT22;9099;47.958;11.366;2022-10-22T02:44:49;14.50;99.90
17948;DHT22;9099;47.958;11.366;2022-10-22T02:47:15;14.50;99.90
17948;DHT22;9099;47.958;11.366;2022-10-22T02:49:44;14.50;99.90
17948;DHT22;9099;47.958;11.366;2022-10-22T02:52:11;14.50;99.90
17948;DHT22;9099;47.958;11.366;2022-10-22T02:54:37;14.60;99.90
17948;DHT22;9099;47.958;11.366;2022-10-22T02:57:04;14.50;99.90
17948;DHT22;9099;47.958;11.366;2022-10-22T02:59:31;14.50;99.90
17948;DHT22;9099;47.958;11.366;2022-10-22T03:01:58;14.50;99.90
17948;DHT22;9099;47.958;11.366;2022-10-22T03:04:25;14.50;99.90
17948;DHT22;9099;47.958;11.366;2022-10-22T03:06:53;14.40;99.90
17948;DHT22;9099;47.958;11.366;2022-10-22T03:09:20;14.40;99.90
17948;DHT22;9099;47.958;11.366;2022-10-22T03:11:47;14.40;99.90
17948;DHT22;9099;47.958;11.366;2022-10-22T03:14:14;14.30;99.90
17948;DHT22;9099;47.958;11.366;2022-10-22T03:16:41;14.30;99.90
17948;DHT22;9099;47.958;11.366;2022-10-22T03:19:08;14.20;99.90
17948;DHT22;9099;47.958;11.366;2022-10-22T03:21:38;14.10;99.90
17948;DHT22;9099;47.958;11.366;2022-10-22T03:24:11;14.00;99.90
17948;DHT22;9099;47.958;11.366;2022-10-22T03:26:40;14.00;99.90
17948;DHT22;9099;47.958;11.366;2022-10-22T03:29:09;13.90;99.90
17948;DHT22;9099;47.958;11.366;2022-10-22T03:31:36;13.90;99.90
17948;DHT22;9099;47.958;11.366;2022-10-22T03:34:03;13.90;99.90
17948;DHT22;9099;47.958;11.366;2022-10-22T03:36:30;13.90;99.90
17948;DHT22;9099;47.958;11.366;2022-10-22T03:38:58;13.80;99.90
17948;DHT22;9099;47.958;11.366;2022-10-22T03:41:26;13.70;99.90
17948;DHT22;9099;47.958;11.366;2022-10-22T03:43:54;13.60;99.90
17948;DHT22;9099;47.958;11.366;2022-10-22T03:46:22;13.60;99.90
17948;DHT22;9099;47.958;11.366;2022-10-22T03:48:49;13.60;99.90
17948;DHT22;9099;47.958;11.366;2022-10-22T03:51:15;13.50;99.90
17948;DHT22;9099;47.958;11.366;2022-10-22T03:53:42;13.60;99.90
17948;DHT22;9099;47.958;11.366;2022-10-22T03:56:10;13.50;99.90
17948;DHT22;9099;47.958;11.366;2022-10-22T03:58:39;13.50;99.90
17948;DHT22;9099;47.958;11.366;2022-10-22T04:01:08;13.50;99.90
17948;DHT22;9099;47.958;11.366;2022-10-22T04:03:35;13.50;99.90
17948;DHT22;9099;47.958;11.366;2022-10-22T04:06:03;13.40;99.90
17948;DHT22;9099;47.958;11.366;2022-10-22T04:08:30;13.20;99.90
17948;DHT22;9099;47.958;11.366;2022-10-22T04:10:57;13.10;99.90
17948;DHT22;9099;47.958;11.366;2022-10-22T04:13:24;13.20;99.90
17948;DHT22;9099;47.958;11.366;2022-10-22T04:15:52;13.20;99.90
17948;DHT22;9099;47.958;11.366;2022-10-22T04:18:20;13.20;99.90
17948;DHT22;9099;47.958;11.366;2022-10-22T04:20:48;13.10;99.90
17948;DHT22;9099;47.958;11.366;2022-10-22T04:23:16;13.10;99.90
17948;DHT22;9099;47.958;11.366;2022-10-22T04:25:43;13.20;99.90
17948;DHT22;9099;47.958;11.366;2022-10-22T04:28:10;13.20;99.90
17948;DHT22;9099;47.958;11.366;2022-10-22T04:30:37;13.20;99.90
17948;DHT22;9099;47.958;11.366;2022-10-22T04:33:05;13.20;99.90
17948;DHT22;9099;47.958;11.366;2022-10-22T04:35:32;13.20;99.90
17948;DHT22;9099;47.958;11.366;2022-10-22T04:37:59;13.30;99.90
17948;DHT22;9099;47.958;11.366;2022-10-22T04:40:25;13.30;99.90
17948;DHT22;9099;47.958;11.366;2022-10-22T04:42:52;13.20;99.90
17948;DHT22;9099;47.958;11.366;2022-10-22T04:45:19;13.20;99.90
17948;DHT22;9099;47.958;11.366;2022-10-22T04:47:46;13.20;99.90
17948;DHT22;9099;47.958;11.366;2022-10-22T04:50:14;13.10;99.90
17948;DHT22;9099;47.958;11.366;2022-10-22T04:52:41;13.10;99.90
17948;DHT22;9099;47.958;11.366;2022-10-22T04:55:08;13.10;99.90
17948;DHT22;9099;47.958;11.366;2022-10-22T04:57:35;13.10;99.90
17948;DHT22;9099;47.958;11.366;2022-10-22T05:00:03;13.20;99.90
17948;DHT22;9099;47.958;11.366;2022-10-22T05:02:30;13.20;99.90
17948;DHT22;9099;47.958;11.366;2022-10-22T05:04:57;13.30;99.90
17948;DHT22;9099;47.958;11.366;2022-10-22T05:07:25;13.30;99.90
17948;DHT22;9099;47.958;11.366;2022-10-22T05:09:52;13.20;99.90
17948;DHT22;9099;47.958;11.366;2022-10-22T05:12:19;13.20;99.90
17948;DHT22;9099;47.958;11.366;2022-10-22T05:14:46;13.20;99.90
17948;DHT22;9099;47.958;11.366;2022-10-22T05:17:13;13.20;99.90
17948;DHT22;9099;47.958;11.366;2022-10-22T05:19:39;13.20;99.90
17948;DHT22;9099;47.958;11.366;2022-10-22T05:22:06;13.20;99.90
17948;DHT22;9099;47.958;11.366;2022-10-22T05:24:35;13.20;99.90
17948;DHT22;9099;47.958;11.366;2022-10-22T05:27:02;13.10;99.90
17948;DHT22;9099;47.958;11.366;2022-10-22T05:29:29;13.10;99.90
17948;DHT22;9099;47.958;11.366;2022-10-22T05:31:56;13.10;99.90
17948;DHT22;9099;47.958;11.366;2022-10-22T05:34:23;13.10;99.90
17948;DHT22;9099;47.958;11.366;2022-10-22T05:36:49;13.10;99.90
17948;DHT22;9099;47.958;11.366;2022-10-22T05:39:16;13.10;99.90
17948;DHT22;9099;47.958;11.366;2022-10-22T05:41:44;13.10;99.90
17948;DHT22;9099;47.958;11.366;2022-10-22T05:44:11;13.10;99.90
17948;DHT22;9099;47.958;11.366;2022-10-22T05:46:38;13.10;99.90
17948;DHT22;9099;47.958;11.366;2022-10-22T05:49:06;13.10;99.90
17948;DHT22;9099;47.958;11.366;2022-10-22T05:51:35;13.20;99.90
17948;DHT22;9099;47.958;11.366;2022-10-22T05:54:05;13.20;99.90
17948;DHT22;9099;47.958;11.366;2022-10-22T05:56:32;13.10;99.90
17948;DHT22;9099;47.958;11.366;2022-10-22T05:59:01;13.10;99.90
17948;DHT22;9099;47.958;11.366;2022-10-22T06:01:29;13.10;99.90
17948;DHT22;9099;47.958;11.366;2022-10-22T06:03:58;13.00;99.90
17948;DHT22;9099;47.958;11.366;2022-10-22T06:06:29;13.10;99.90
17948;DHT22;9099;47.958;11.366;2022-10-22T06:09:00;13.10;99.90
17948;DHT22;9099;47.958;11.366;2022-10-22T06:11:27;13.10;99.90
17948;DHT22;9099;47.958;11.366;2022-10-22T06:13:54;13.00;99.90
17948;DHT22;9099;47.958;11.366;2022-10-22T06:16:22;13.00;99.90
17948;DHT22;9099;47.958;11.366;2022-10-22T06:18:49;13.10;99.90
17948;DHT22;9099;47.958;11.366;2022-10-22T06:21:16;13.20;99.90
17948;DHT22;9099;47.958;11.366;2022-10-22T06:23:43;13.20;99.90
17948;DHT22;9099;47.958;11.366;2022-10-22T06:26:10;13.20;99.90
17948;DHT22;9099;47.958;11.366;2022-10-22T06:28:37;13.20;99.90
17948;DHT22;9099;47.958;11.366;2022-10-22T06:31:05;13.20;99.90
17948;DHT22;9099;47.958;11.366;2022-10-22T06:33:33;13.10;99.90
17948;DHT22;9099;47.958;11.366;2022-10-22T06:36:08;13.20;99.90
17948;DHT22;9099;47.958;11.366;2022-10-22T06:38:36;13.20;99.90
17948;DHT22;9099;47.958;11.366;2022-10-22T06:41:03;13.10;99.90
17948;DHT22;9099;47.958;11.366;2022-10-22T06:43:30;13.10;99.90
17948;DHT22;9099;47.958;11.366;2022-10-22T06:45:58;13.00;99.90
17948;DHT22;9099;47.958;11.366;2022-10-22T06:48:26;13.00;99.90
17948;DHT22;9099;47.958;11.366;2022-10-22T06:50:54;12.90;99.90
17948;DHT22;9099;47.958;11.366;2022-10-22T06:53:21;12.90;99.90
17948;DHT22;9099;47.958;11.366;2022-10-22T06:55:48;12.90;99.90
17948;DHT22;9099;47.958;11.366;2022-10-22T06:58:15;13.00;99.90
17948;DHT22;9099;47.958;11.366;2022-10-22T07:00:42;13.00;99.90
17948;DHT22;9099;47.958;11.366;2022-10-22T07:03:11;13.10;99.90
17948;DHT22;9099;47.958;11.366;2022-10-22T07:05:38;13.10;99.90
17948;DHT22;9099;47.958;11.366;2022-10-22T07:08:06;13.10;99.90
17948;DHT22;9099;47.958;11.366;2022-10-22T07:10:33;13.10;99.90
17948;DHT22;9099;47.958;11.366;2022-10-22T07:13:00;13.00;99.90
17948;DHT22;9099;47.958;11.366;2022-10-22T07:15:27;12.90;99.90
17948;DHT22;9099;47.958;11.366;2022-10-22T07:17:54;12.90;99.90
17948;DHT22;9099;47.958;11.366;2022-10-22T07:20:20;12.90;99.90
17948;DHT22;9099;47.958;11.366;2022-10-22T07:22:47;13.00;99.90
17948;DHT22;9099;47.958;11.366;2022-10-22T07:25:15;13.00;99.90
17948;DHT22;9099;47.958;11.366;2022-10-22T07:27:42;13.00;99.90
17948;DHT22;9099;47.958;11.366;2022-10-22T07:30:10;13.10;99.90
17948;DHT22;9099;47.958;11.366;2022-10-22T07:32:36;13.10;99.90
17948;DHT22;9099;47.958;11.366;2022-10-22T07:35:04;13.10;99.90
17948;DHT22;9099;47.958;11.366;2022-10-22T07:37:31;13.10;99.90
17948;DHT22;9099;47.958;11.366;2022-10-22T07:39:58;13.20;99.90
17948;DHT22;9099;47.958;11.366;2022-10-22T07:42:26;13.20;99.90
17948;DHT22;9099;47.958;11.366;2022-10-22T07:44:53;13.20;99.90
17948;DHT22;9099;47.958;11.366;2022-10-22T07:47:20;13.30;99.90
17948;DHT22;9099;47.958;11.366;2022-10-22T07:49:46;13.30;99.90
17948;DHT22;9099;47.958;11.366;2022-10-22T07:52:13;13.40;99.90
17948;DHT22;9099;47.958;11.366;2022-10-22T07:54:40;13.50;99.90
17948;DHT22;9099;47.958;11.366;2022-10-22T07:57:07;13.50;99.90
17948;DHT22;9099;47.958;11.366;2022-10-22T07:59:35;13.50;99.90
17948;DHT22;9099;47.958;11.366;2022-10-22T08:02:02;13.70;99.90
17948;DHT22;9099;47.958;11.366;2022-10-22T08:04:29;13.70;99.90
17948;DHT22;9099;47.958;11.366;2022-10-22T08:06:55;13.70;99.90
17948;DHT22;9099;47.958;11.366;2022-10-22T08:09:22;13.70;99.90
17948;DHT22;9099;47.958;11.366;2022-10-22T08:11:49;13.70;99.90
17948;DHT22;9099;47.958;11.366;2022-10-22T08:14:16;13.80;99.90
17948;DHT22;9099;47.958;11.366;2022-10-22T08:16:44;13.90;99.90
17948;DHT22;9099;47.958;11.366;2022-10-22T08:19:11;13.80;99.90
17948;DHT22;9099;47.958;11.366;2022-10-22T08:21:43;13.90;99.90
17948;DHT22;9099;47.958;11.366;2022-10-22T08:24:11;13.90;99.90
17948;DHT22;9099;47.958;11.366;2022-10-22T08:26:38;13.90;99.90
17948;DHT22;9099;47.958;11.366;2022-10-22T08:29:05;13.90;99.90
17948;DHT22;9099;47.958;11.366;2022-10-22T08:31:32;13.90;99.90
17948;DHT22;9099;47.958;11.366;2022-10-22T08:34:00;13.90;99.90
17948;DHT22;9099;47.958;11.366;2022-10-22T08:36:27;13.80;99.90
17948;DHT22;9099;47.958;11.366;2022-10-22T08:38:54;13.80;99.90
17948;DHT22;9099;47.958;11.366;2022-10-22T08:41:23;13.90;99.90
17948;DHT22;9099;47.958;11.366;2022-10-22T08:47:12;13.90;99.90
17948;DHT22;9099;47.958;11.366;2022-10-22T08:49:44;13.90;99.90
17948;DHT22;9099;47.958;11.366;2022-10-22T08:52:16;14.00;99.90
17948;DHT22;9099;47.958;11.366;2022-10-22T08:54:50;13.90;99.90
17948;DHT22;9099;47.958;11.366;2022-10-22T08:57:34;14.10;99.90
17948;DHT22;9099;47.958;11.366;2022-10-22T09:00:04;14.10;99.90
17948;DHT22;9099;47.958;11.366;2022-10-22T09:02:37;14.00;99.90
17948;DHT22;9099;47.958;11.366;2022-10-22T09:05:18;14.00;99.90
17948;DHT22;9099;47.958;11.366;2022-10-22T09:07:47;14.10;99.90
17948;DHT22;9099;47.958;11.366;2022-10-22T09:10:15;14.20;99.90
17948;DHT22;9099;47.958;11.366;2022-10-22T09:12:42;14.30;99.90
17948;DHT22;9099;47.958;11.366;2022-10-22T09:15:13;14.30;99.90
17948;DHT22;9099;47.958;11.366;2022-10-22T09:17:49;14.30;99.90
17948;DHT22;9099;47.958;11.366;2022-10-22T09:20:26;14.30;99.90
17948;DHT22;9099;47.958;11.366;2022-10-22T09:23:01;14.30;99.90
17948;DHT22;9099;47.958;11.366;2022-10-22T09:25:32;14.30;99.90
17948;DHT22;9099;47.958;11.366;2022-10-22T09:28:01;14.30;99.90
17948;DHT22;9099;47.958;11.366;2022-10-22T09:30:29;14.40;99.90
17948;DHT22;9099;47.958;11.366;2022-10-22T09:33:01;14.40;99.90
17948;DHT22;9099;47.958;11.366;2022-10-22T09:35:33;14.50;99.90
17948;DHT22;9099;47.958;11.366;2022-10-22T09:38:06;14.50;99.90
17948;DHT22;9099;47.958;11.366;2022-10-22T09:40:42;14.60;99.90
17948;DHT22;9099;47.958;11.366;2022-10-22T09:43:11;14.60;99.90
17948;DHT22;9099;47.958;11.366;2022-10-22T09:45:40;14.60;99.90
17948;DHT22;9099;47.958;11.366;2022-10-22T09:48:11;14.60;99.90
17948;DHT22;9099;47.958;11.366;2022-10-22T09:50:42;14.70;99.90
17948;DHT22;9099;47.958;11.366;2022-10-22T09:53:13;14.80;99.90
17948;DHT22;9099;47.958;11.366;2022-10-22T09:55:43;14.90;99.90
17948;DHT22;9099;47.958;11.366;2022-10-22T09:58:16;15.00;99.90
17948;DHT22;9099;47.958;11.366;2022-10-22T10:00:44;15.20;99.90
17948;DHT22;9099;47.958;11.366;2022-10-22T10:03:16;15.50;99.90
17948;DHT22;9099;47.958;11.366;2022-10-22T10:05:46;15.70;99.90
17948;DHT22;9099;47.958;11.366;2022-10-22T10:08:15;16.00;99.90
17948;DHT22;9099;47.958;11.366;2022-10-22T10:10:46;16.50;99.90
17948;DHT22;9099;47.958;11.366;2022-10-22T10:13:29;16.90;99.90
17948;DHT22;9099;47.958;11.366;2022-10-22T10:16:06;17.60;99.90
17948;DHT22;9099;47.958;11.366;2022-10-22T10:18:45;17.50;99.90
17948;DHT22;9099;47.958;11.366;2022-10-22T10:21:22;17.50;99.90
17948;DHT22;9099;47.958;11.366;2022-10-22T10:23:56;17.60;99.90
17948;DHT22;9099;47.958;11.366;2022-10-22T10:26:28;17.80;99.90
17948;DHT22;9099;47.958;11.366;2022-10-22T10:29:09;18.50;99.90
17948;DHT22;9099;47.958;11.366;2022-10-22T10:31:48;19.30;99.90
17948;DHT22;9099;47.958;11.366;2022-10-22T10:34:24;19.70;99.90
17948;DHT22;9099;47.958;11.366;2022-10-22T10:37:03;20.10;99.90
17948;DHT22;9099;47.958;11.366;2022-10-22T10:39:43;20.50;99.90
17948;DHT22;9099;47.958;11.366;2022-10-22T10:42:19;21.30;99.90
17948;DHT22;9099;47.958;11.366;2022-10-22T10:45:01;22.00;99.90
17948;DHT22;9099;47.958;11.366;2022-10-22T10:50:38;23.00;99.90
17948;DHT22;9099;47.958;11.366;2022-10-22T10:53:16;23.50;99.90
17948;DHT22;9099;47.958;11.366;2022-10-22T10:55:54;23.30;99.90
17948;DHT22;9099;47.958;11.366;2022-10-22T10:58:30;23.10;99.90
17948;DHT22;9099;47.958;11.366;2022-10-22T11:01:06;23.10;99.90
17948;DHT22;9099;47.958;11.366;2022-10-22T11:04:00;23.00;99.90
17948;DHT22;9099;47.958;11.366;2022-10-22T11:06:32;22.60;99.90
17948;DHT22;9099;47.958;11.366;2022-10-22T11:09:04;22.70;99.90
17948;DHT22;9099;47.958;11.366;2022-10-22T11:11:37;22.90;99.90
17948;DHT22;9099;47.958;11.366;2022-10-22T11:14:12;23.00;99.90
17948;DHT22;9099;47.958;11.366;2022-10-22T11:16:43;22.90;99.90
17948;DHT22;9099;47.958;11.366;2022-10-22T11:19:15;22.90;99.90
17948;DHT22;9099;47.958;11.366;2022-10-22T11:21:49;23.10;99.90
17948;DHT22;9099;47.958;11.366;2022-10-22T11:24:23;23.10;99.90
17948;DHT22;9099;47.958;11.366;2022-10-22T11:26:55;23.10;99.90
17948;DHT22;9099;47.958;11.366;2022-10-22T11:29:26;23.00;99.90
17948;DHT22;9099;47.958;11.366;2022-10-22T11:31:55;22.70;99.90
17948;DHT22;9099;47.958;11.366;2022-10-22T11:34:26;22.60;99.90
17948;DHT22;9099;47.958;11.366;2022-10-22T11:36:54;22.60;99.90
17948;DHT22;9099;47.958;11.366;2022-10-22T11:39:29;22.70;99.90
17948;DHT22;9099;47.958;11.366;2022-10-22T11:41:57;22.60;99.90
17948;DHT22;9099;47.958;11.366;2022-10-22T11:44:24;22.50;99.90
17948;DHT22;9099;47.958;11.366;2022-10-22T11:46:56;22.30;99.90
17948;DHT22;9099;47.958;11.366;2022-10-22T11:49:25;22.30;99.90
17948;DHT22;9099;47.958;11.366;2022-10-22T11:52:21;22.40;99.90
17948;DHT22;9099;47.958;11.366;2022-10-22T11:54:53;22.60;99.90
17948;DHT22;9099;47.958;11.366;2022-10-22T11:57:25;22.80;99.90
17948;DHT22;9099;47.958;11.366;2022-10-22T11:59:56;22.90;99.90
17948;DHT22;9099;47.958;11.366;2022-10-22T12:02:31;23.10;99.90
17948;DHT22;9099;47.958;11.366;2022-10-22T12:05:17;23.10;99.90
17948;DHT22;9099;47.958;11.366;2022-10-22T12:07:52;23.00;99.90
17948;DHT22;9099;47.958;11.366;2022-10-22T12:10:26;22.90;99.90
17948;DHT22;9099;47.958;11.366;2022-10-22T12:12:55;22.50;99.90
17948;DHT22;9099;47.958;11.366;2022-10-22T12:15:25;22.10;99.90
17948;DHT22;9099;47.958;11.366;2022-10-22T12:17:57;22.00;99.90
17948;DHT22;9099;47.958;11.366;2022-10-22T12:20:25;22.00;99.90
17948;DHT22;9099;47.958;11.366;2022-10-22T12:22:54;21.70;99.90
17948;DHT22;9099;47.958;11.366;2022-10-22T12:25:23;21.20;99.90
17948;DHT22;9099;47.958;11.366;2022-10-22T12:27:52;20.80;99.90
17948;DHT22;9099;47.958;11.366;2022-10-22T12:30:21;20.90;99.90
17948;DHT22;9099;47.958;11.366;2022-10-22T12:32:50;20.90;99.90
17948;DHT22;9099;47.958;11.366;2022-10-22T12:35:21;20.70;99.90
17948;DHT22;9099;47.958;11.366;2022-10-22T12:37:50;20.50;99.90
17948;DHT22;9099;47.958;11.366;2022-10-22T12:40:18;20.20;99.90
17948;DHT22;9099;47.958;11.366;2022-10-22T12:42:49;20.10;99.90
17948;DHT22;9099;47.958;11.366;2022-10-22T12:45:17;19.90;99.90
17948;DHT22;9099;47.958;11.366;2022-10-22T12:47:48;19.70;99.90
17948;DHT22;9099;47.958;11.366;2022-10-22T12:50:17;19.50;99.90
17948;DHT22;9099;47.958;11.366;2022-10-22T12:52:45;19.40;99.90
17948;DHT22;9099;47.958;11.366;2022-10-22T12:55:17;19.30;99.90
17948;DHT22;9099;47.958;11.366;2022-10-22T12:57:47;19.20;99.90
17948;DHT22;9099;47.958;11.366;2022-10-22T13:00:22;19.30;99.90
17948;DHT22;9099;47.958;11.366;2022-10-22T13:02:49;19.20;99.90
17948;DHT22;9099;47.958;11.366;2022-10-22T13:05:22;19.20;99.90
17948;DHT22;9099;47.958;11.366;2022-10-22T13:07:53;19.20;99.90
17948;DHT22;9099;47.958;11.366;2022-10-22T13:10:24;19.20;99.90
17948;DHT22;9099;47.958;11.366;2022-10-22T13:12:56;19.70;99.90
17948;DHT22;9099;47.958;11.366;2022-10-22T13:15:37;20.20;99.90
17948;DHT22;9099;47.958;11.366;2022-10-22T13:18:15;20.60;99.90
17948;DHT22;9099;47.958;11.366;2022-10-22T13:20:53;20.40;99.90
17948;DHT22;9099;47.958;11.366;2022-10-22T13:23:22;20.50;99.90
17948;DHT22;9099;47.958;11.366;2022-10-22T13:26:01;20.80;99.90
17948;DHT22;9099;47.958;11.366;2022-10-22T13:28:31;20.60;99.90
17948;DHT22;9099;47.958;11.366;2022-10-22T13:30:59;20.70;99.90
17948;DHT22;9099;47.958;11.366;2022-10-22T13:33:28;20.80;99.90
17948;DHT22;9099;47.958;11.366;2022-10-22T13:35:56;20.60;99.90
17948;DHT22;9099;47.958;11.366;2022-10-22T13:38:24;20.40;99.90
17948;DHT22;9099;47.958;11.366;2022-10-22T13:40:51;20.20;99.90
17948;DHT22;9099;47.958;11.366;2022-10-22T13:43:19;20.40;99.90
17948;DHT22;9099;47.958;11.366;2022-10-22T13:45:49;20.20;99.90
17948;DHT22;9099;47.958;11.366;2022-10-22T13:48:19;20.50;99.90
17948;DHT22;9099;47.958;11.366;2022-10-22T13:50:47;20.90;99.90
17948;DHT22;9099;47.958;11.366;2022-10-22T13:53:16;21.20;99.90
17948;DHT22;9099;47.958;11.366;2022-10-22T13:55:44;21.50;99.90
17948;DHT22;9099;47.958;11.366;2022-10-22T13:58:13;21.70;99.90
17948;DHT22;9099;47.958;11.366;2022-10-22T14:00:44;22.10;99.90
17948;DHT22;9099;47.958;11.366;2022-10-22T14:03:16;22.20;99.90
17948;DHT22;9099;47.958;11.366;2022-10-22T14:05:44;22.40;99.90
17948;DHT22;9099;47.958;11.366;2022-10-22T14:08:14;22.50;99.90
17948;DHT22;9099;47.958;11.366;2022-10-22T14:10:41;22.50;99.90
17948;DHT22;9099;47.958;11.366;2022-10-22T14:13:09;22.10;99.90
17948;DHT22;9099;47.958;11.366;2022-10-22T14:15:36;21.70;99.90
17948;DHT22;9099;47.958;11.366;2022-10-22T14:18:05;21.60;99.90
17948;DHT22;9099;47.958;11.366;2022-10-22T14:20:35;21.50;99.90
17948;DHT22;9099;47.958;11.366;2022-10-22T14:23:12;21.40;99.90
17948;DHT22;9099;47.958;11.366;2022-10-22T14:25:40;21.30;99.90
17948;DHT22;9099;47.958;11.366;2022-10-22T14:28:08;21.30;99.90
17948;DHT22;9099;47.958;11.366;2022-10-22T14:30:35;21.30;99.90
17948;DHT22;9099;47.958;11.366;2022-10-22T14:33:08;21.30;99.90
17948;DHT22;9099;47.958;11.366;2022-10-22T14:35:37;21.30;99.90
17948;DHT22;9099;47.958;11.366;2022-10-22T14:38:03;21.20;99.90
17948;DHT22;9099;47.958;11.366;2022-10-22T14:40:30;21.20;99.90
17948;DHT22;9099;47.958;11.366;2022-10-22T14:42:57;21.10;99.90
17948;DHT22;9099;47.958;11.366;2022-10-22T14:45:26;21.10;99.90
17948;DHT22;9099;47.958;11.366;2022-10-22T14:47:53;21.10;99.90
17948;DHT22;9099;47.958;11.366;2022-10-22T14:50:21;21.10;99.90
17948;DHT22;9099;47.958;11.366;2022-10-22T14:52:49;21.10;99.90
17948;DHT22;9099;47.958;11.366;2022-10-22T14:55:17;21.20;99.90
17948;DHT22;9099;47.958;11.366;2022-10-22T14:57:45;21.20;99.90
17948;DHT22;9099;47.958;11.366;2022-10-22T15:00:14;21.10;99.90
17948;DHT22;9099;47.958;11.366;2022-10-22T15:02:41;21.00;99.90
17948;DHT22;9099;47.958;11.366;2022-10-22T15:05:08;20.90;99.90
17948;DHT22;9099;47.958;11.366;2022-10-22T15:07:36;20.70;99.90
17948;DHT22;9099;47.958;11.366;2022-10-22T15:10:05;20.70;99.90
17948;DHT22;9099;47.958;11.366;2022-10-22T15:12:33;20.60;99.90
17948;DHT22;9099;47.958;11.366;2022-10-22T15:15:00;20.40;99.90
17948;DHT22;9099;47.958;11.366;2022-10-22T15:17:26;20.10;99.90
17948;DHT22;9099;47.958;11.366;2022-10-22T15:19:53;19.80;99.90
17948;DHT22;9099;47.958;11.366;2022-10-22T15:22:21;19.60;99.90
17948;DHT22;9099;47.958;11.366;2022-10-22T15:24:48;19.40;99.90
17948;DHT22;9099;47.958;11.366;2022-10-22T15:27:16;19.20;99.90
17948;DHT22;9099;47.958;11.366;2022-10-22T15:29:43;18.90;99.90
17948;DHT22;9099;47.958;11.366;2022-10-22T15:32:10;18.80;99.90
17948;DHT22;9099;47.958;11.366;2022-10-22T15:34:39;18.70;99.90
17948;DHT22;9099;47.958;11.366;2022-10-22T15:37:08;18.50;99.90
17948;DHT22;9099;47.958;11.366;2022-10-22T15:39:38;18.40;99.90
17948;DHT22;9099;47.958;11.366;2022-10-22T15:42:05;18.40;99.90
17948;DHT22;9099;47.958;11.366;2022-10-22T15:44:34;18.30;99.90
17948;DHT22;9099;47.958;11.366;2022-10-22T15:47:02;18.10;99.90
17948;DHT22;9099;47.958;11.366;2022-10-22T15:49:31;18.00;99.90
17948;DHT22;9099;47.958;11.366;2022-10-22T15:51:59;17.90;99.90